createdAt,value
2018-09-05T00:00:57.661Z,14.40
2018-09-05T00:01:57.513Z,13.60
2018-09-05T00:02:57.510Z,13.40
2018-09-05T00:03:57.505Z,13.20
2018-09-05T00:04:57.534Z,12.00
2018-09-05T00:05:57.510Z,12.20
2018-09-05T00:06:57.509Z,11.90
2018-09-05T00:07:57.507Z,11.50
2018-09-05T00:08:57.506Z,12.00
2018-09-05T00:09:57.536Z,12.30
2018-09-05T00:10:57.502Z,12.90
2018-09-05T00:11:57.501Z,12.50
2018-09-05T00:12:57.504Z,12.80
2018-09-05T00:13:57.527Z,13.00
2018-09-05T00:14:57.499Z,12.50
2018-09-05T00:15:57.503Z,12.40
2018-09-05T00:16:57.500Z,12.30
2018-09-05T00:17:57.496Z,12.70
2018-09-05T00:18:57.525Z,12.50
2018-09-05T00:19:57.499Z,12.80
2018-09-05T00:20:57.497Z,12.60
2018-09-05T00:21:57.498Z,13.60
2018-09-05T00:22:57.521Z,12.80
2018-09-05T00:23:57.493Z,12.70
2018-09-05T00:24:57.522Z,12.80
2018-09-05T00:25:57.497Z,13.40
2018-09-05T00:26:57.489Z,14.00
2018-09-05T00:27:57.486Z,13.10
2018-09-05T00:28:57.491Z,13.50
2018-09-05T00:29:57.539Z,13.20
2018-09-05T00:30:57.486Z,13.70
2018-09-05T00:31:57.483Z,13.50
2018-09-05T00:32:57.486Z,13.90
2018-09-05T00:33:57.519Z,12.70
2018-09-05T00:34:57.483Z,12.90
2018-09-05T00:35:57.482Z,13.40
2018-09-05T00:36:57.484Z,12.70
2018-09-05T00:37:57.483Z,12.40
2018-09-05T00:38:57.509Z,12.80
2018-09-05T00:39:57.504Z,12.60
2018-09-05T00:40:57.480Z,13.10
2018-09-05T00:41:57.484Z,12.70
2018-09-05T00:42:57.476Z,13.10
2018-09-05T00:43:57.477Z,12.90
2018-09-05T00:44:57.504Z,12.80
2018-09-05T00:45:57.477Z,13.20
2018-09-05T00:46:57.473Z,12.80
2018-09-05T00:47:57.473Z,13.20
2018-09-05T00:48:57.473Z,13.10
2018-09-05T00:49:57.497Z,13.40
2018-09-05T00:50:57.476Z,12.80
2018-09-05T00:51:57.470Z,12.90
2018-09-05T00:52:57.467Z,13.00
2018-09-05T00:53:57.470Z,13.10
2018-09-05T00:54:57.494Z,13.70
2018-09-05T00:55:57.468Z,13.80
2018-09-05T00:56:57.466Z,13.90
2018-09-05T00:57:57.467Z,13.90
2018-09-05T00:58:57.462Z,14.80
2018-09-05T00:59:57.487Z,15.20
2018-09-05T01:00:57.463Z,15.10
2018-09-05T01:01:57.460Z,14.50
2018-09-05T01:02:57.457Z,14.50
2018-09-05T01:03:57.463Z,13.80
2018-09-05T01:04:57.493Z,13.90
2018-09-05T01:05:57.458Z,14.20
2018-09-05T01:06:57.456Z,14.70
2018-09-05T01:07:57.459Z,14.50
2018-09-05T01:08:57.480Z,14.80
2018-09-05T01:09:57.450Z,15.10
2018-09-05T01:10:57.455Z,14.20
2018-09-05T01:11:57.449Z,14.40
2018-09-05T01:12:57.446Z,14.50
2018-09-05T01:13:57.477Z,14.40
2018-09-05T01:14:57.478Z,14.70
2018-09-05T01:15:57.446Z,14.50
2018-09-05T01:16:57.444Z,14.00
2018-09-05T01:17:57.450Z,14.40
2018-09-05T01:18:57.442Z,14.00
2018-09-05T01:19:57.471Z,13.50
2018-09-05T01:20:57.443Z,14.80
2018-09-05T01:21:57.451Z,14.70
2018-09-05T01:22:57.446Z,14.80
2018-09-05T01:23:57.440Z,14.60
2018-09-05T01:24:57.467Z,14.70
2018-09-05T01:25:57.436Z,14.60
2018-09-05T01:26:57.438Z,15.60
2018-09-05T01:27:57.436Z,14.40
2018-09-05T01:28:57.431Z,14.50
2018-09-05T01:29:57.464Z,15.20
2018-09-05T01:30:57.435Z,14.00
2018-09-05T01:31:57.429Z,14.30
2018-09-05T01:32:57.428Z,15.30
2018-09-05T01:33:57.428Z,15.90
2018-09-05T01:34:57.456Z,16.00
2018-09-05T01:35:57.425Z,15.80
2018-09-05T01:36:57.425Z,20.90
2018-09-05T01:37:57.425Z,18.50
2018-09-05T01:38:57.427Z,16.90
2018-09-05T01:39:57.454Z,17.00
2018-09-05T01:40:59.083Z,18.50
2018-09-05T01:41:57.423Z,17.00
2018-09-05T01:42:57.417Z,19.10
2018-09-05T01:43:57.444Z,17.70
2018-09-05T01:44:57.446Z,17.10
2018-09-05T01:45:57.416Z,17.30
2018-09-05T01:46:57.413Z,16.80
2018-09-05T01:47:57.410Z,18.40
2018-09-05T01:48:57.411Z,18.70
2018-09-05T01:49:57.435Z,18.20
2018-09-05T01:50:57.407Z,16.80
2018-09-05T01:51:57.408Z,18.00
2018-09-05T01:52:57.408Z,18.20
2018-09-05T01:53:57.403Z,18.60
2018-09-05T01:54:57.437Z,18.20
2018-09-05T01:55:57.404Z,17.10
2018-09-05T01:56:57.401Z,17.30
2018-09-05T01:57:57.407Z,17.50
2018-09-05T01:58:57.401Z,17.50
2018-09-05T01:59:57.430Z,19.70
2018-09-05T02:00:57.398Z,20.10
2018-09-05T02:01:57.446Z,18.30
2018-09-05T02:02:57.398Z,20.20
2018-09-05T02:03:57.421Z,21.40
2018-09-05T02:04:57.394Z,19.90
2018-09-05T02:05:57.393Z,18.10
2018-09-05T02:06:57.394Z,17.40
2018-09-05T02:07:57.393Z,17.30
2018-09-05T02:08:57.421Z,18.00
2018-09-05T02:09:57.418Z,17.30
2018-09-05T02:10:57.375Z,17.10
2018-09-05T02:11:57.375Z,17.10
2018-09-05T02:12:57.376Z,17.90
2018-09-05T02:13:57.392Z,16.80
2018-09-05T02:14:57.400Z,17.30
2018-09-05T02:15:57.367Z,17.30
2018-09-05T02:16:57.368Z,21.00
2018-09-05T02:17:57.370Z,19.30
2018-09-05T02:18:57.396Z,18.30
2018-09-05T02:19:57.395Z,18.20
2018-09-05T02:20:57.372Z,17.80
2018-09-05T02:21:57.365Z,18.70
2018-09-05T02:22:57.364Z,18.80
2018-09-05T02:23:57.364Z,19.50
2018-09-05T02:24:57.386Z,20.90
2018-09-05T02:25:57.357Z,20.40
2018-09-05T02:26:57.357Z,21.90
2018-09-05T02:27:57.357Z,21.40
2018-09-05T02:28:57.353Z,22.50
2018-09-05T02:29:57.387Z,21.50
2018-09-05T02:30:57.356Z,20.90
2018-09-05T02:31:57.349Z,20.00
2018-09-05T02:32:57.353Z,20.40
2018-09-05T02:33:57.350Z,19.70
2018-09-05T02:34:57.380Z,20.00
2018-09-05T02:35:57.346Z,20.30
2018-09-05T02:36:57.350Z,19.60
2018-09-05T02:37:57.343Z,19.50
2018-09-05T02:38:57.371Z,18.70
2018-09-05T02:39:57.367Z,18.60
2018-09-05T02:40:57.339Z,19.70
2018-09-05T02:41:57.339Z,20.40
2018-09-05T02:42:57.336Z,20.10
2018-09-05T02:43:57.340Z,19.80
2018-09-05T02:44:57.360Z,19.90
2018-09-05T02:45:57.336Z,19.90
2018-09-05T02:46:57.333Z,19.80
2018-09-05T02:47:57.352Z,19.90
2018-09-05T02:48:57.325Z,19.60
2018-09-05T02:49:57.355Z,19.60
2018-09-05T02:50:57.328Z,20.00
2018-09-05T02:51:57.324Z,19.50
2018-09-05T02:52:57.325Z,19.70
2018-09-05T02:53:57.326Z,17.90
2018-09-05T02:54:57.349Z,18.10
2018-09-05T02:55:57.321Z,19.50
2018-09-05T02:56:57.317Z,19.50
2018-09-05T02:57:57.316Z,18.90
2018-09-05T02:58:57.322Z,19.40
2018-09-05T02:59:57.347Z,19.90
2018-09-05T03:00:57.485Z,19.60
2018-09-05T03:01:57.311Z,19.50
2018-09-05T03:02:57.310Z,18.80
2018-09-05T03:03:57.311Z,19.10
2018-09-05T03:04:57.334Z,20.00
2018-09-05T03:05:57.307Z,21.20
2018-09-05T03:06:57.308Z,21.10
2018-09-05T03:07:57.311Z,20.40
2018-09-05T03:08:57.308Z,21.00
2018-09-05T03:09:57.332Z,21.10
2018-09-05T03:10:57.306Z,20.70
2018-09-05T03:11:57.296Z,22.10
2018-09-05T03:12:57.434Z,22.00
2018-09-05T03:13:57.297Z,21.80
2018-09-05T03:14:57.323Z,22.00
2018-09-05T03:15:57.294Z,21.10
2018-09-05T03:16:57.293Z,21.60
2018-09-05T03:17:57.293Z,22.80
2018-09-05T03:18:57.289Z,21.60
2018-09-05T03:19:57.320Z,20.90
2018-09-05T03:20:57.313Z,21.50
2018-09-05T03:21:57.292Z,21.40
2018-09-05T03:22:57.287Z,21.90
2018-09-05T03:23:57.279Z,21.60
2018-09-05T03:24:57.277Z,22.00
2018-09-05T03:25:57.308Z,21.80
2018-09-05T03:26:57.289Z,22.30
2018-09-05T03:27:57.279Z,23.20
2018-09-05T03:28:57.282Z,22.90
2018-09-05T03:29:57.301Z,23.00
2018-09-05T03:30:57.277Z,21.90
2018-09-05T03:31:57.272Z,23.30
2018-09-05T03:32:57.285Z,22.70
2018-09-05T03:33:57.271Z,22.60
2018-09-05T03:34:57.299Z,23.00
2018-09-05T03:35:57.269Z,21.00
2018-09-05T03:36:57.268Z,23.80
2018-09-05T03:37:57.264Z,22.70
2018-09-05T03:38:57.266Z,23.00
2018-09-05T03:39:57.291Z,23.30
2018-09-05T03:40:57.464Z,23.40
2018-09-05T03:41:57.261Z,23.10
2018-09-05T03:42:57.274Z,23.10
2018-09-05T03:43:57.299Z,23.50
2018-09-05T03:44:57.281Z,23.00
2018-09-05T03:45:57.253Z,20.40
2018-09-05T03:46:57.253Z,21.00
2018-09-05T03:47:57.249Z,21.80
2018-09-05T03:48:57.251Z,22.70
2018-09-05T03:49:57.271Z,22.40
2018-09-05T03:50:57.250Z,21.40
2018-09-05T03:51:57.247Z,23.20
2018-09-05T03:52:57.242Z,22.10
2018-09-05T03:53:57.242Z,21.70
2018-09-05T03:54:57.270Z,23.10
2018-09-05T03:55:57.265Z,22.80
2018-09-05T03:56:57.238Z,22.30
2018-09-05T03:57:57.246Z,22.90
2018-09-05T03:58:57.235Z,23.30
2018-09-05T03:59:57.259Z,23.30
2018-09-05T04:00:57.232Z,23.10
2018-09-05T04:01:57.231Z,23.40
2018-09-05T04:02:57.231Z,23.20
2018-09-05T04:03:57.228Z,23.60
2018-09-05T04:04:57.264Z,23.60
2018-09-05T04:05:57.256Z,24.30
2018-09-05T04:06:57.227Z,24.40
2018-09-05T04:07:57.224Z,21.20
2018-09-05T04:08:57.223Z,22.00
2018-09-05T04:09:57.254Z,23.20
2018-09-05T04:10:57.220Z,23.40
2018-09-05T04:11:57.221Z,23.20
2018-09-05T04:12:57.216Z,23.80
2018-09-05T04:13:57.217Z,23.40
2018-09-05T04:14:57.347Z,23.40
2018-09-05T04:15:57.276Z,22.00
2018-09-05T04:16:57.210Z,22.70
2018-09-05T04:17:57.212Z,22.30
2018-09-05T04:18:57.209Z,22.80
2018-09-05T04:19:57.203Z,21.80
2018-09-05T04:20:57.237Z,21.90
2018-09-05T04:21:57.309Z,22.20
2018-09-05T04:22:57.198Z,27.10
2018-09-05T04:23:57.205Z,28.20
2018-09-05T04:24:57.276Z,24.30
2018-09-05T04:25:57.204Z,23.70
2018-09-05T04:26:57.199Z,23.50
2018-09-05T04:27:57.195Z,21.70
2018-09-05T04:28:57.195Z,20.60
2018-09-05T04:29:57.301Z,20.00
2018-09-05T04:30:57.195Z,19.60
2018-09-05T04:31:57.194Z,19.30
2018-09-05T04:32:57.192Z,19.70
2018-09-05T04:33:57.190Z,18.90
2018-09-05T04:34:57.214Z,18.20
2018-09-05T04:35:57.181Z,19.10
2018-09-05T04:36:57.186Z,19.50
2018-09-05T04:37:57.184Z,19.70
2018-09-05T04:38:57.184Z,19.90
2018-09-05T04:39:57.205Z,19.50
2018-09-05T04:40:57.185Z,19.80
2018-09-05T04:41:57.184Z,19.40
2018-09-05T04:42:57.181Z,19.20
2018-09-05T04:43:57.178Z,19.70
2018-09-05T04:44:57.209Z,19.90
2018-09-05T04:45:57.169Z,21.00
2018-09-05T04:46:57.174Z,20.90
2018-09-05T04:47:57.170Z,18.80
2018-09-05T04:48:57.171Z,18.50
2018-09-05T04:49:57.197Z,17.90
2018-09-05T04:50:57.166Z,17.40
2018-09-05T04:51:57.195Z,17.50
2018-09-05T04:52:57.164Z,18.50
2018-09-05T04:53:57.165Z,18.70
2018-09-05T04:54:57.158Z,18.00
2018-09-05T04:55:57.183Z,17.20
2018-09-05T04:56:57.160Z,17.80
2018-09-05T04:57:57.160Z,17.50
2018-09-05T04:58:57.160Z,19.20
2018-09-05T04:59:57.183Z,18.40
2018-09-05T05:00:57.156Z,17.40
2018-09-05T05:01:57.179Z,18.80
2018-09-05T05:02:57.151Z,19.50
2018-09-05T05:03:57.937Z,18.50
2018-09-05T05:04:57.154Z,20.50
2018-09-05T05:05:57.297Z,19.10
2018-09-05T05:06:57.149Z,18.90
2018-09-05T05:07:57.149Z,19.20
2018-09-05T05:08:57.143Z,20.80
2018-09-05T05:09:57.147Z,25.70
2018-09-05T05:10:57.175Z,29.10
2018-09-05T05:11:57.142Z,28.20
2018-09-05T05:12:57.146Z,23.20
2018-09-05T05:13:57.168Z,32.50
2018-09-05T05:14:57.167Z,23.50
2018-09-05T05:15:57.164Z,23.90
2018-09-05T05:16:57.140Z,23.20
2018-09-05T05:17:57.145Z,20.60
2018-09-05T05:18:57.147Z,20.30
2018-09-05T05:19:57.138Z,19.60
2018-09-05T05:20:57.171Z,18.20
2018-09-05T05:21:57.138Z,17.30
2018-09-05T05:22:57.134Z,17.60
2018-09-05T05:23:57.139Z,16.60
2018-09-05T05:24:57.129Z,16.50
2018-09-05T05:25:57.163Z,16.30
2018-09-05T05:26:57.132Z,16.10
2018-09-05T05:27:57.134Z,16.70
2018-09-05T05:28:57.129Z,17.50
2018-09-05T05:29:57.125Z,22.40
2018-09-05T05:30:57.157Z,18.50
2018-09-05T05:31:57.132Z,20.10
2018-09-05T05:32:57.233Z,19.00
2018-09-05T05:33:57.134Z,16.80
2018-09-05T05:34:57.128Z,16.00
2018-09-05T05:35:57.153Z,16.10
2018-09-05T05:36:57.161Z,17.00
2018-09-05T05:37:57.126Z,17.90
2018-09-05T05:38:57.129Z,17.50
2018-09-05T05:39:57.122Z,19.00
2018-09-05T05:40:57.126Z,19.10
2018-09-05T05:41:57.152Z,19.80
2018-09-05T05:42:57.124Z,20.00
2018-09-05T05:43:57.127Z,21.30
2018-09-05T05:44:57.154Z,22.60
2018-09-05T05:45:57.221Z,22.10
2018-09-05T05:46:57.123Z,21.30
2018-09-05T05:47:57.123Z,30.50
2018-09-05T05:48:57.120Z,29.60
2018-09-05T05:49:57.119Z,22.00
2018-09-05T05:50:57.479Z,23.00
2018-09-05T05:51:57.115Z,18.80
2018-09-05T05:52:57.119Z,16.30
2018-09-05T05:53:57.120Z,19.10
2018-09-05T05:54:57.124Z,18.90
2018-09-05T05:55:57.144Z,16.90
2018-09-05T05:56:57.119Z,15.80
2018-09-05T05:57:57.150Z,16.40
2018-09-05T05:58:57.120Z,14.90
2018-09-05T05:59:57.121Z,13.30
2018-09-05T06:00:57.180Z,14.60
2018-09-05T06:01:57.144Z,14.50
2018-09-05T06:02:57.121Z,13.50
2018-09-05T06:03:57.128Z,14.50
2018-09-05T06:04:57.123Z,14.90
2018-09-05T06:05:57.161Z,16.80
2018-09-05T06:06:57.121Z,16.90
2018-09-05T06:07:57.153Z,17.30
2018-09-05T06:08:57.121Z,16.50
2018-09-05T06:09:57.127Z,18.20
2018-09-05T06:10:57.169Z,22.20
2018-09-05T06:11:57.196Z,20.10
2018-09-05T06:12:57.122Z,20.50
2018-09-05T06:13:57.127Z,25.20
2018-09-05T06:14:57.127Z,25.00
2018-09-05T06:15:57.128Z,20.70
2018-09-05T06:16:57.160Z,18.30
2018-09-05T06:17:57.141Z,19.20
2018-09-05T06:18:57.130Z,16.10
2018-09-05T06:19:57.130Z,16.10
2018-09-05T06:20:57.172Z,16.70
2018-09-05T06:21:57.164Z,17.10
2018-09-05T06:22:57.140Z,16.50
2018-09-05T06:23:57.156Z,17.70
2018-09-05T06:24:57.140Z,16.10
2018-09-05T06:25:57.150Z,16.40
2018-09-05T06:26:57.169Z,15.20
2018-09-05T06:27:57.312Z,14.80
2018-09-05T06:28:57.147Z,17.00
2018-09-05T06:29:57.155Z,15.50
2018-09-05T06:30:57.214Z,15.20
2018-09-05T06:31:57.187Z,15.00
2018-09-05T06:32:57.161Z,14.00
2018-09-05T06:33:57.169Z,14.00
2018-09-05T06:34:57.166Z,16.10
2018-09-05T06:35:57.272Z,13.40
2018-09-05T06:36:57.167Z,13.30
2018-09-05T06:37:57.225Z,12.70
2018-09-05T06:38:57.271Z,12.90
2018-09-05T06:39:57.195Z,13.50
2018-09-05T06:40:57.238Z,12.70
2018-09-05T06:41:57.484Z,13.60
2018-09-05T06:42:57.190Z,13.40
2018-09-05T06:44:57.278Z,12.20
2018-09-05T06:45:58.389Z,12.70
2018-09-05T06:46:58.971Z,13.20
2018-09-05T06:48:04.321Z,13.70
2018-09-05T06:48:57.271Z,13.30
2018-09-05T06:49:58.890Z,12.70
2018-09-05T06:51:00.332Z,12.70
2018-09-05T06:51:59.848Z,14.30
2018-09-05T06:52:59.859Z,14.60
2018-09-05T06:53:57.821Z,14.40
2018-09-05T06:54:59.968Z,15.20
2018-09-05T06:56:03.822Z,15.50
2018-09-05T06:56:58.531Z,15.20
2018-09-05T06:58:02.864Z,15.00
2018-09-05T06:58:57.255Z,15.80
2018-09-05T06:59:57.255Z,15.30
2018-09-05T07:00:57.285Z,15.60
2018-09-05T07:02:02.119Z,15.00
2018-09-05T07:02:57.408Z,14.90
2018-09-05T07:03:59.186Z,15.00
2018-09-05T07:04:57.592Z,15.10
2018-09-05T07:05:57.476Z,14.60
2018-09-05T07:06:57.518Z,14.70
2018-09-05T07:07:58.161Z,15.50
2018-09-05T07:08:57.292Z,13.80
2018-09-05T07:09:57.358Z,14.80
2018-09-05T07:10:57.344Z,14.60
2018-09-05T07:11:57.305Z,13.50
2018-09-05T07:12:57.331Z,13.40
2018-09-05T07:13:57.310Z,13.20
2018-09-05T07:14:57.323Z,12.60
2018-09-05T07:15:57.320Z,12.90
2018-09-05T07:16:57.351Z,12.00
2018-09-05T07:17:57.334Z,12.00
2018-09-05T07:18:57.336Z,12.50
2018-09-05T07:19:57.335Z,11.70
2018-09-05T07:21:05.678Z,11.40
2018-09-05T07:21:57.410Z,11.50
2018-09-05T07:22:57.353Z,12.30
2018-09-05T07:23:57.382Z,12.20
2018-09-05T07:24:57.394Z,13.20
2018-09-05T07:25:57.364Z,13.00
2018-09-05T07:26:57.411Z,12.50
2018-09-05T07:27:57.375Z,13.20
2018-09-05T07:28:57.382Z,13.30
2018-09-05T07:29:57.385Z,12.20
2018-09-05T07:30:57.495Z,12.50
2018-09-05T07:31:57.402Z,12.40
2018-09-05T07:32:59.327Z,12.40
2018-09-05T07:33:57.447Z,12.60
2018-09-05T07:34:57.417Z,11.70
2018-09-05T07:35:57.460Z,11.70
2018-09-05T07:36:57.561Z,11.60
2018-09-05T07:37:57.444Z,11.60
2018-09-05T07:38:57.450Z,12.00
2018-09-05T07:39:57.453Z,12.30
2018-09-05T07:40:57.458Z,14.10
2018-09-05T07:41:57.512Z,12.60
2018-09-05T07:42:57.476Z,13.00
2018-09-05T07:43:57.485Z,13.30
2018-09-05T07:44:57.493Z,12.20
2018-09-05T07:45:57.500Z,11.00
2018-09-05T07:46:57.554Z,11.10
2018-09-05T07:47:57.513Z,11.20
2018-09-05T07:48:57.531Z,12.10
2018-09-05T07:49:58.364Z,11.60
2018-09-05T07:50:57.762Z,11.80
2018-09-05T07:51:57.588Z,12.10
2018-09-05T07:52:57.567Z,11.20
2018-09-05T07:53:57.574Z,11.60
2018-09-05T07:54:57.582Z,12.30
2018-09-05T07:55:57.629Z,11.60
2018-09-05T07:56:57.597Z,12.50
2018-09-05T07:57:57.607Z,11.70
2018-09-05T07:58:57.654Z,16.50
2018-09-05T07:59:57.626Z,11.70
2018-09-05T08:00:57.635Z,11.70
2018-09-05T08:01:57.679Z,11.50
2018-09-05T08:02:57.678Z,11.80
2018-09-05T08:03:57.659Z,11.70
2018-09-05T08:04:57.676Z,12.60
2018-09-05T08:05:57.693Z,11.60
2018-09-05T08:06:57.749Z,11.30
2018-09-05T08:07:57.703Z,11.10
2018-09-05T08:08:57.719Z,11.00
2018-09-05T08:09:57.730Z,11.90
2018-09-05T08:10:57.786Z,11.60
2018-09-05T08:11:57.752Z,11.90
2018-09-05T08:12:57.764Z,11.40
2018-09-05T08:13:57.776Z,11.60
2018-09-05T08:14:57.800Z,11.20
2018-09-05T08:15:57.848Z,11.60
2018-09-05T08:16:57.806Z,11.70
2018-09-05T08:17:57.837Z,11.90
2018-09-05T08:18:57.867Z,11.10
2018-09-05T08:19:57.846Z,11.80
2018-09-05T08:20:57.854Z,11.10
2018-09-05T08:21:57.908Z,11.20
2018-09-05T08:22:57.881Z,11.70
2018-09-05T08:23:57.891Z,11.60
2018-09-05T08:24:57.896Z,11.30
2018-09-05T08:25:57.935Z,12.00
2018-09-05T08:26:57.923Z,11.30
2018-09-05T08:27:57.939Z,11.00
2018-09-05T08:28:58.015Z,11.30
2018-09-05T08:29:57.968Z,11.90
2018-09-05T08:30:58.009Z,11.30
2018-09-05T08:31:57.977Z,11.40
2018-09-05T08:32:57.988Z,11.20
2018-09-05T08:33:59.004Z,11.80
2018-09-05T08:34:59.043Z,11.70
2018-09-05T08:35:58.316Z,11.30
2018-09-05T08:36:58.251Z,11.50
2018-09-05T08:37:58.095Z,11.40
2018-09-05T08:38:58.119Z,11.30
2018-09-05T08:39:58.129Z,11.10
2018-09-05T08:40:58.263Z,10.80
2018-09-05T08:41:58.420Z,10.60
2018-09-05T08:42:58.147Z,10.70
2018-09-05T08:43:58.658Z,10.80
2018-09-05T08:44:58.514Z,10.90
2018-09-05T08:45:58.241Z,10.90
2018-09-05T08:46:58.280Z,10.70
2018-09-05T08:47:58.293Z,10.70
2018-09-05T08:48:58.353Z,10.80
2018-09-05T08:49:58.522Z,10.90
2018-09-05T08:50:58.303Z,10.40
2018-09-05T08:51:59.354Z,10.50
2018-09-05T08:52:58.263Z,11.10
2018-09-05T08:53:58.266Z,10.60
2018-09-05T08:54:58.315Z,10.40
2018-09-05T08:55:58.326Z,10.40
2018-09-05T08:56:58.316Z,10.70
2018-09-05T08:57:58.317Z,10.60
2018-09-05T08:58:58.321Z,10.50
2018-09-05T08:59:58.373Z,10.50
2018-09-05T09:00:59.136Z,10.30
2018-09-05T09:01:58.405Z,10.20
2018-09-05T09:02:58.413Z,10.10
2018-09-05T09:03:59.890Z,11.00
2018-09-05T09:04:58.463Z,10.80
2018-09-05T09:05:58.455Z,11.20
2018-09-05T09:06:58.432Z,10.40
2018-09-05T09:07:58.724Z,10.40
2018-09-05T09:08:58.481Z,10.60
2018-09-05T09:09:58.475Z,10.50
2018-09-05T09:10:58.522Z,10.60
2018-09-05T09:11:58.518Z,10.30
2018-09-05T09:12:58.529Z,9.70
2018-09-05T09:13:58.528Z,10.10
2018-09-05T09:14:58.546Z,10.10
2018-09-05T09:15:58.614Z,9.70
2018-09-05T09:16:58.585Z,9.90
2018-09-05T09:17:59.424Z,10.10
2018-09-05T09:18:58.611Z,9.60
2018-09-05T09:19:58.622Z,10.10
2018-09-05T09:20:58.684Z,9.90
2018-09-05T09:21:58.654Z,9.10
2018-09-05T09:22:58.789Z,9.70
2018-09-05T09:23:58.682Z,9.00
2018-09-05T09:24:58.702Z,9.00
2018-09-05T09:25:58.769Z,9.00
2018-09-05T09:26:58.738Z,9.10
2018-09-05T09:27:58.806Z,8.80
2018-09-05T09:28:59.870Z,8.80
2018-09-05T09:29:58.794Z,8.00
2018-09-05T09:30:58.844Z,7.40
2018-09-05T09:31:58.814Z,7.70
2018-09-05T09:32:58.834Z,8.00
2018-09-05T09:33:58.852Z,7.50
2018-09-05T09:34:59.530Z,8.20
2018-09-05T09:35:58.924Z,8.20
2018-09-05T09:36:58.970Z,7.70
2018-09-05T09:37:58.917Z,8.20
2018-09-05T09:38:58.930Z,8.50
2018-09-05T09:40:01.874Z,8.40
2018-09-05T09:40:59.003Z,8.80
2018-09-05T09:41:58.980Z,9.00
2018-09-05T09:42:59.003Z,8.40
2018-09-05T09:43:59.016Z,8.60
2018-09-05T09:44:59.067Z,8.40
2018-09-05T09:46:00.422Z,8.60
2018-09-05T09:46:59.057Z,7.90
2018-09-05T09:47:59.076Z,8.60
2018-09-05T09:48:59.094Z,8.50
2018-09-05T09:49:59.153Z,8.50
2018-09-05T09:51:00.019Z,8.50
2018-09-05T09:51:59.176Z,8.90
2018-09-05T09:52:59.165Z,8.30
2018-09-05T09:53:59.188Z,8.70
2018-09-05T09:54:59.236Z,8.60
2018-09-05T09:55:59.251Z,8.40
2018-09-05T09:57:01.069Z,7.60
2018-09-05T09:57:59.250Z,8.10
2018-09-05T09:58:59.261Z,8.30
2018-09-05T09:59:59.280Z,8.00
2018-09-05T10:00:59.336Z,8.30
2018-09-05T10:01:59.330Z,7.80
2018-09-05T10:02:59.330Z,8.00
2018-09-05T10:03:59.364Z,7.80
2018-09-05T10:04:59.362Z,8.00
2018-09-05T10:05:59.435Z,8.10
2018-09-05T10:06:59.411Z,7.30
2018-09-05T10:07:59.415Z,7.90
2018-09-05T10:08:59.435Z,7.40
2018-09-05T10:09:59.668Z,7.00
2018-09-05T10:10:59.472Z,7.20
2018-09-05T10:11:59.524Z,7.20
2018-09-05T10:12:59.502Z,6.90
2018-09-05T10:13:59.519Z,7.30
2018-09-05T10:14:59.602Z,7.20
2018-09-05T10:15:59.582Z,6.70
2018-09-05T10:16:59.624Z,6.20
2018-09-05T10:17:59.583Z,6.90
2018-09-05T10:18:59.603Z,7.10
2018-09-05T10:19:59.616Z,7.30
2018-09-05T10:20:59.687Z,6.80
2018-09-05T10:21:59.656Z,6.80
2018-09-05T10:22:59.671Z,7.00
2018-09-05T10:23:59.688Z,6.40
2018-09-05T10:24:59.707Z,6.80
2018-09-05T10:25:59.754Z,6.80
2018-09-05T10:26:59.777Z,7.00
2018-09-05T10:27:59.761Z,7.10
2018-09-05T10:28:59.773Z,7.20
2018-09-05T10:29:59.791Z,6.70
2018-09-05T10:30:59.861Z,6.70
2018-09-05T10:31:59.834Z,6.10
2018-09-05T10:32:59.840Z,7.00
2018-09-05T10:33:59.863Z,7.00
2018-09-05T10:34:59.881Z,6.60
2018-09-05T10:35:59.935Z,7.40
2018-09-05T10:36:59.915Z,7.00
2018-09-05T10:37:59.936Z,7.00
2018-09-05T10:38:59.952Z,7.20
2018-09-05T10:39:59.968Z,6.80
2018-09-05T10:41:00.022Z,7.40
2018-09-05T10:42:00.008Z,7.50
2018-09-05T10:43:00.025Z,7.20
2018-09-05T10:44:00.042Z,7.90
2018-09-05T10:45:00.059Z,8.00
2018-09-05T10:46:00.116Z,7.70
2018-09-05T10:47:00.099Z,7.80
2018-09-05T10:48:00.115Z,8.30
2018-09-05T10:49:00.134Z,8.50
2018-09-05T10:50:00.155Z,7.20
2018-09-05T10:51:00.207Z,7.00
2018-09-05T10:52:00.188Z,7.10
2018-09-05T10:53:00.204Z,7.80
2018-09-05T10:54:00.223Z,8.10
2018-09-05T10:55:00.239Z,7.70
2018-09-05T10:56:00.304Z,7.80
2018-09-05T10:57:00.282Z,7.90
2018-09-05T10:58:00.345Z,7.50
2018-09-05T10:59:00.315Z,7.50
2018-09-05T11:00:00.332Z,7.20
2018-09-05T11:01:00.389Z,6.80
2018-09-05T11:02:00.374Z,7.70
2018-09-05T11:03:00.392Z,7.70
2018-09-05T11:04:00.401Z,7.40
2018-09-05T11:05:00.428Z,7.70
2018-09-05T11:06:00.490Z,7.40
2018-09-05T11:07:00.465Z,7.70
2018-09-05T11:08:00.481Z,7.30
2018-09-05T11:09:00.502Z,7.80
2018-09-05T11:10:00.518Z,7.50
2018-09-05T11:11:00.579Z,7.20
2018-09-05T11:12:00.554Z,7.30
2018-09-05T11:13:00.575Z,7.80
2018-09-05T11:14:00.595Z,7.40
2018-09-05T11:15:00.615Z,7.40
2018-09-05T11:16:00.667Z,7.70
2018-09-05T11:17:00.651Z,6.90
2018-09-05T11:18:00.671Z,7.50
2018-09-05T11:19:00.689Z,7.40
2018-09-05T11:20:00.709Z,7.40
2018-09-05T11:21:00.760Z,7.40
2018-09-05T11:22:00.744Z,7.70
2018-09-05T11:23:00.770Z,7.40
2018-09-05T11:24:00.787Z,7.50
2018-09-05T11:25:00.853Z,6.80
2018-09-05T11:26:00.861Z,7.80
2018-09-05T11:27:00.841Z,8.20
2018-09-05T11:28:00.865Z,7.60
2018-09-05T11:29:00.913Z,7.50
2018-09-05T11:30:00.898Z,7.30
2018-09-05T11:31:00.959Z,7.70
2018-09-05T11:32:00.944Z,7.80
2018-09-05T11:33:00.959Z,7.40
2018-09-05T11:34:00.981Z,7.30
2018-09-05T11:35:01.000Z,7.80
2018-09-05T11:36:01.047Z,7.90
2018-09-05T11:37:01.060Z,7.70
2018-09-05T11:38:01.060Z,8.30
2018-09-05T11:39:01.071Z,7.70
2018-09-05T11:40:01.093Z,7.60
2018-09-05T11:41:01.156Z,7.40
2018-09-05T11:42:01.137Z,7.90
2018-09-05T11:43:01.152Z,7.60
2018-09-05T11:44:01.172Z,7.50
2018-09-05T11:45:01.185Z,7.90
2018-09-05T11:46:01.249Z,7.60
2018-09-05T11:47:01.265Z,7.10
2018-09-05T11:48:01.252Z,7.30
2018-09-05T11:49:01.262Z,7.80
2018-09-05T11:50:01.286Z,7.10
2018-09-05T11:51:01.349Z,7.50
2018-09-05T11:52:01.358Z,7.70
2018-09-05T11:53:01.348Z,7.40
2018-09-05T11:54:01.370Z,7.40
2018-09-05T11:55:01.387Z,7.40
2018-09-05T11:56:01.442Z,7.40
2018-09-05T11:57:01.423Z,7.20
2018-09-05T11:58:01.449Z,7.80
2018-09-05T11:59:01.460Z,7.60
2018-09-05T12:00:01.486Z,7.40
2018-09-05T12:01:01.543Z,7.50
2018-09-05T12:02:01.526Z,7.60
2018-09-05T12:03:01.545Z,7.80
2018-09-05T12:04:01.562Z,7.40
2018-09-05T12:05:01.606Z,6.80
2018-09-05T12:06:01.655Z,7.60
2018-09-05T12:07:01.622Z,7.40
2018-09-05T12:08:01.645Z,7.50
2018-09-05T12:09:01.661Z,7.40
2018-09-05T12:10:01.681Z,7.00
2018-09-05T12:11:01.739Z,7.30
2018-09-05T12:12:01.770Z,7.50
2018-09-05T12:13:01.743Z,7.30
2018-09-05T12:14:01.759Z,7.60
2018-09-05T12:15:01.780Z,7.50
2018-09-05T12:16:01.835Z,6.80
2018-09-05T12:17:01.819Z,6.50
2018-09-05T12:18:01.835Z,6.40
2018-09-05T12:19:01.856Z,7.00
2018-09-05T12:20:01.877Z,6.90
2018-09-05T12:21:01.936Z,6.80
2018-09-05T12:22:01.912Z,7.60
2018-09-05T12:23:01.932Z,7.10
2018-09-05T12:24:01.952Z,7.20
2018-09-05T12:25:01.972Z,6.30
2018-09-05T12:26:02.043Z,6.90
2018-09-05T12:27:02.049Z,6.10
2018-09-05T12:28:02.029Z,7.00
2018-09-05T12:29:02.050Z,5.90
2018-09-05T12:30:02.070Z,6.10
2018-09-05T12:31:02.127Z,6.10
2018-09-05T12:32:02.108Z,6.40
2018-09-05T12:33:02.127Z,6.30
2018-09-05T12:34:02.147Z,6.20
2018-09-05T12:35:02.167Z,6.30
2018-09-05T12:36:02.223Z,6.10
2018-09-05T12:37:02.199Z,6.30
2018-09-05T12:38:02.223Z,5.80
2018-09-05T12:39:02.243Z,6.20
2018-09-05T12:40:02.300Z,5.90
2018-09-05T12:41:02.284Z,6.00
2018-09-05T12:42:02.304Z,6.00
2018-09-05T12:43:02.324Z,5.50
2018-09-05T12:44:02.341Z,5.90
2018-09-05T12:45:02.401Z,6.10
2018-09-05T12:46:02.384Z,5.70
2018-09-05T12:47:02.404Z,5.90
2018-09-05T12:48:02.428Z,5.40
2018-09-05T12:49:02.450Z,5.30
2018-09-05T12:50:02.508Z,5.70
2018-09-05T12:51:02.491Z,5.50
2018-09-05T12:52:02.506Z,5.20
2018-09-05T12:53:02.527Z,5.50
2018-09-05T12:54:02.547Z,5.00
2018-09-05T12:55:02.606Z,5.50
2018-09-05T12:56:02.627Z,5.50
2018-09-05T12:57:02.607Z,5.10
2018-09-05T12:58:02.627Z,5.10
2018-09-05T12:59:02.651Z,5.00
2018-09-05T13:00:02.707Z,5.00
2018-09-05T13:01:02.686Z,4.50